createdAt,value
2019-02-17T00:00:19.649Z,99.90
2019-02-17T00:02:48.385Z,99.90
2019-02-17T00:05:17.175Z,99.90
2019-02-17T00:07:45.980Z,99.90
2019-02-17T00:10:14.868Z,99.90
2019-02-17T00:12:45.703Z,99.90
2019-02-17T00:15:14.729Z,99.90
2019-02-17T00:17:43.209Z,99.90
2019-02-17T00:20:14.217Z,99.90
2019-02-17T00:22:43.103Z,99.90
2019-02-17T00:25:11.633Z,99.90
2019-02-17T00:27:40.373Z,99.90
2019-02-17T00:30:13.137Z,99.90
2019-02-17T00:32:41.621Z,99.90
2019-02-17T00:35:10.610Z,99.90
2019-02-17T00:37:39.065Z,99.90
2019-02-17T00:40:11.153Z,99.90
2019-02-17T00:42:41.249Z,99.90
2019-02-17T00:45:12.013Z,99.90
2019-02-17T00:47:40.489Z,99.90
2019-02-17T00:50:09.677Z,99.90
2019-02-17T00:52:39.665Z,99.90
2019-02-17T00:55:08.727Z,99.90
2019-02-17T00:57:37.473Z,99.90
2019-02-17T01:00:13.391Z,99.90
2019-02-17T01:02:42.288Z,99.90
2019-02-17T01:05:11.105Z,99.90
2019-02-17T01:07:40.342Z,99.90
2019-02-17T01:10:09.260Z,99.90
2019-02-17T01:12:37.749Z,99.90
2019-02-17T01:15:09.292Z,99.90
2019-02-17T01:17:37.748Z,99.90
2019-02-17T01:20:10.550Z,99.90
2019-02-17T01:22:39.402Z,99.90
2019-02-17T01:25:11.452Z,99.90
2019-02-17T01:27:41.282Z,99.90
2019-02-17T01:30:12.892Z,99.90
2019-02-17T01:32:41.404Z,99.90
2019-02-17T01:35:10.194Z,99.90
2019-02-17T01:37:38.671Z,99.90
2019-02-17T01:40:09.618Z,99.90
2019-02-17T01:42:38.510Z,99.90
2019-02-17T01:45:09.362Z,99.90
2019-02-17T01:47:38.219Z,99.90
2019-02-17T01:50:09.301Z,99.90
2019-02-17T01:52:38.155Z,99.90
2019-02-17T01:55:08.071Z,99.90
2019-02-17T01:57:36.626Z,99.90
2019-02-17T02:00:08.153Z,99.90
2019-02-17T02:02:36.849Z,99.90
2019-02-17T02:05:06.987Z,99.90
2019-02-17T02:07:35.773Z,99.90
2019-02-17T02:10:06.844Z,99.90
2019-02-17T02:12:35.605Z,99.90
2019-02-17T02:15:05.956Z,99.90
2019-02-17T02:17:34.418Z,99.90
2019-02-17T02:20:03.274Z,99.90
2019-02-17T02:22:31.960Z,99.90
2019-02-17T02:25:00.412Z,99.90
2019-02-17T02:27:29.258Z,99.90
2019-02-17T02:29:58.040Z,99.90
2019-02-17T02:32:26.757Z,99.90
2019-02-17T02:34:55.501Z,99.90
2019-02-17T02:37:24.283Z,99.90
2019-02-17T02:39:52.731Z,99.90
2019-02-17T02:42:23.092Z,99.90
2019-02-17T02:44:51.533Z,99.90
2019-02-17T02:47:20.342Z,99.90
2019-02-17T02:49:48.921Z,99.90
2019-02-17T02:52:19.297Z,99.90
2019-02-17T02:54:47.751Z,99.90
2019-02-17T02:57:16.503Z,99.90
2019-02-17T02:59:52.344Z,99.90
2019-02-17T03:02:15.857Z,99.90
2019-02-17T03:04:44.406Z,99.90
2019-02-17T03:07:12.921Z,99.90
2019-02-17T03:09:41.409Z,99.90
2019-02-17T03:12:10.279Z,99.90
2019-02-17T03:14:39.180Z,99.90
2019-02-17T03:17:07.698Z,99.90
2019-02-17T03:19:36.475Z,99.90
2019-02-17T03:22:04.974Z,99.90
2019-02-17T03:24:33.436Z,99.90
2019-02-17T03:27:01.893Z,99.90
2019-02-17T03:29:30.429Z,99.90
2019-02-17T03:31:58.972Z,99.90
2019-02-17T03:34:27.707Z,99.90
2019-02-17T03:36:58.853Z,99.90
2019-02-17T03:39:27.653Z,99.90
2019-02-17T03:41:57.577Z,99.90
2019-02-17T03:44:27.580Z,99.90
2019-02-17T03:46:56.093Z,99.90
2019-02-17T03:49:24.541Z,99.90
2019-02-17T03:51:53.348Z,99.90
2019-02-17T03:54:23.207Z,99.90
2019-02-17T03:56:51.918Z,99.90
2019-02-17T03:59:20.726Z,99.90
2019-02-17T04:01:49.639Z,99.90
2019-02-17T04:04:20.029Z,99.90
2019-02-17T04:06:48.509Z,99.90
2019-02-17T04:09:18.333Z,99.90
2019-02-17T04:11:46.800Z,99.90
2019-02-17T04:14:15.293Z,99.90
2019-02-17T04:16:43.952Z,99.90
2019-02-17T04:19:12.422Z,99.90
2019-02-17T04:21:40.947Z,99.90
2019-02-17T04:24:09.415Z,99.90
2019-02-17T04:26:37.938Z,99.90
2019-02-17T04:29:06.483Z,99.90
2019-02-17T04:31:35.247Z,99.90
2019-02-17T04:34:04.052Z,99.90
2019-02-17T04:36:32.924Z,99.90
2019-02-17T04:39:03.079Z,99.90
2019-02-17T04:41:31.548Z,99.90
2019-02-17T04:44:00.426Z,99.90
2019-02-17T04:46:30.618Z,99.90
2019-02-17T04:48:59.420Z,99.90
2019-02-17T04:51:28.191Z,99.90
2019-02-17T04:53:56.646Z,99.90
2019-02-17T04:56:25.136Z,99.90
2019-02-17T04:58:53.865Z,99.90
2019-02-17T05:01:22.650Z,99.90
2019-02-17T05:03:51.149Z,99.90
2019-02-17T05:06:19.925Z,99.90
2019-02-17T05:08:50.012Z,99.90
2019-02-17T05:11:18.558Z,99.90
2019-02-17T05:13:47.336Z,99.90
2019-02-17T05:16:17.152Z,99.90
2019-02-17T05:18:45.902Z,99.90
2019-02-17T05:21:14.374Z,99.90
2019-02-17T05:23:42.897Z,99.90
2019-02-17T05:26:11.385Z,99.90
2019-02-17T05:28:40.166Z,99.90
2019-02-17T05:31:08.680Z,99.90
2019-02-17T05:33:37.446Z,99.90
2019-02-17T05:36:06.270Z,99.90
2019-02-17T05:38:35.086Z,99.90
2019-02-17T05:41:03.648Z,99.90
2019-02-17T05:43:32.176Z,99.90
2019-02-17T05:46:00.916Z,99.90
2019-02-17T05:48:29.930Z,99.90
2019-02-17T05:50:58.394Z,99.90
2019-02-17T05:53:27.148Z,99.90
2019-02-17T05:55:57.319Z,99.90
2019-02-17T05:58:25.796Z,99.90
2019-02-17T06:01:03.245Z,99.90
2019-02-17T06:03:24.765Z,99.90
2019-02-17T06:05:53.286Z,99.90
2019-02-17T06:08:21.738Z,99.90
2019-02-17T06:10:50.545Z,99.90
2019-02-17T06:13:19.303Z,99.90
2019-02-17T06:15:49.357Z,99.90
2019-02-17T06:18:20.931Z,99.90
2019-02-17T06:20:50.947Z,99.90
2019-02-17T06:23:19.484Z,99.90
2019-02-17T06:25:50.989Z,99.90
2019-02-17T06:28:19.620Z,99.90
2019-02-17T06:30:49.810Z,99.90
2019-02-17T06:33:18.706Z,99.90
2019-02-17T06:35:47.183Z,99.90
2019-02-17T06:38:15.633Z,99.90
2019-02-17T06:40:45.373Z,99.90
2019-02-17T06:43:13.884Z,99.90
2019-02-17T06:45:44.184Z,99.90
2019-02-17T06:48:12.709Z,99.90
2019-02-17T06:50:41.343Z,99.90
2019-02-17T06:53:09.955Z,99.90
2019-02-17T06:55:40.157Z,99.90
2019-02-17T06:58:09.036Z,99.90
2019-02-17T07:00:45.213Z,99.90
2019-02-17T07:03:14.429Z,99.90
2019-02-17T07:05:44.903Z,99.90
2019-02-17T07:08:13.683Z,99.90
2019-02-17T07:10:42.201Z,99.90
2019-02-17T07:13:10.774Z,99.90
2019-02-17T07:15:39.591Z,99.90
2019-02-17T07:18:08.088Z,99.90
2019-02-17T07:20:36.567Z,99.90
2019-02-17T07:23:05.090Z,99.90
2019-02-17T07:25:33.923Z,99.90
2019-02-17T07:28:02.419Z,99.90
2019-02-17T07:30:31.247Z,99.90
2019-02-17T07:33:02.616Z,99.90
2019-02-17T07:35:31.372Z,99.90
2019-02-17T07:38:01.944Z,99.90
2019-02-17T07:40:30.725Z,99.90
2019-02-17T07:42:59.206Z,99.90
2019-02-17T07:45:28.070Z,99.90
2019-02-17T07:47:56.878Z,99.90
2019-02-17T07:50:25.643Z,99.90
2019-02-17T07:52:54.209Z,99.90
2019-02-17T07:55:23.954Z,99.90
2019-02-17T07:57:54.218Z,99.90
2019-02-17T08:00:23.070Z,99.90
2019-02-17T08:02:51.620Z,99.90
2019-02-17T08:05:21.058Z,99.90
2019-02-17T08:07:49.826Z,99.90
2019-02-17T08:10:18.304Z,99.90
2019-02-17T08:12:46.909Z,99.90
2019-02-17T08:15:15.384Z,99.90
2019-02-17T08:17:44.784Z,99.90
2019-02-17T08:20:13.274Z,99.90
2019-02-17T08:22:41.724Z,99.90
2019-02-17T08:25:19.380Z,99.90
2019-02-17T08:27:43.228Z,99.90
2019-02-17T08:30:13.390Z,99.90
2019-02-17T08:32:44.060Z,99.90
2019-02-17T08:35:12.137Z,99.90
2019-02-17T08:37:40.743Z,99.90
2019-02-17T08:40:10.676Z,99.90
2019-02-17T08:42:39.124Z,99.90
2019-02-17T08:45:09.236Z,99.90
2019-02-17T08:47:37.721Z,99.90
2019-02-17T08:50:11.106Z,99.90
2019-02-17T08:52:39.852Z,99.90
2019-02-17T08:55:10.088Z,99.90
2019-02-17T08:57:38.542Z,99.90
2019-02-17T09:00:12.814Z,99.90
2019-02-17T09:02:41.308Z,99.90
2019-02-17T09:05:10.374Z,99.90
2019-02-17T09:07:38.819Z,99.90
2019-02-17T09:10:10.805Z,99.90
2019-02-17T09:12:39.483Z,99.90
2019-02-17T09:15:12.277Z,99.90
2019-02-17T09:17:40.834Z,99.90
2019-02-17T09:20:10.944Z,99.90
2019-02-17T09:22:39.420Z,99.90
2019-02-17T09:25:10.601Z,99.90
2019-02-17T09:27:39.132Z,99.90
2019-02-17T09:30:13.910Z,99.90
2019-02-17T09:32:42.460Z,99.90
2019-02-17T09:35:10.936Z,99.90
2019-02-17T09:37:39.405Z,99.90
2019-02-17T09:40:12.842Z,99.90
2019-02-17T09:42:41.311Z,99.90
2019-02-17T09:45:12.829Z,99.90
2019-02-17T09:47:41.705Z,99.90
2019-02-17T09:50:12.399Z,99.90
2019-02-17T09:52:40.933Z,99.90
2019-02-17T09:55:11.276Z,99.90
2019-02-17T09:57:40.057Z,99.90
2019-02-17T10:00:14.005Z,99.90
2019-02-17T10:02:42.466Z,99.90
2019-02-17T10:05:12.193Z,99.90
2019-02-17T10:07:41.052Z,99.90
2019-02-17T10:10:12.223Z,99.90
2019-02-17T10:12:40.773Z,99.90
2019-02-17T10:15:11.879Z,99.90
2019-02-17T10:17:40.413Z,99.90
2019-02-17T10:20:14.720Z,99.90
2019-02-17T10:22:43.205Z,99.90
2019-02-17T10:25:11.809Z,99.90
2019-02-17T10:27:40.307Z,99.90
2019-02-17T10:30:16.749Z,99.90
2019-02-17T10:32:45.257Z,99.90
2019-02-17T10:35:13.709Z,99.10
2019-02-17T10:37:42.472Z,98.40
2019-02-17T10:40:17.904Z,97.30
2019-02-17T10:42:46.352Z,98.00
2019-02-17T10:45:15.457Z,98.20
2019-02-17T10:47:45.486Z,98.00
2019-02-17T10:50:14.386Z,97.60
2019-02-17T10:52:42.917Z,97.00
2019-02-17T10:55:13.299Z,96.30
2019-02-17T10:57:41.827Z,94.80
2019-02-17T11:00:16.341Z,93.00
2019-02-17T11:02:47.475Z,91.60
2019-02-17T11:05:15.219Z,90.30
2019-02-17T11:07:44.491Z,90.40
2019-02-17T11:10:14.031Z,86.20
2019-02-17T11:12:42.576Z,81.80
2019-02-17T11:15:17.053Z,81.60
2019-02-17T11:17:45.505Z,78.70
2019-02-17T11:20:14.038Z,72.80
2019-02-17T11:22:42.522Z,72.60
2019-02-17T11:25:13.470Z,72.40
2019-02-17T11:27:41.992Z,70.60
2019-02-17T11:30:22.592Z,67.10
2019-02-17T11:33:30.688Z,67.30
2019-02-17T11:35:59.176Z,66.70
2019-02-17T11:38:27.717Z,65.50
2019-02-17T11:40:56.449Z,62.80
2019-02-17T11:43:25.287Z,59.70
2019-02-17T11:45:54.223Z,57.20
2019-02-17T11:48:23.893Z,57.60
2019-02-17T11:50:52.409Z,58.30
2019-02-17T11:53:20.941Z,56.40
2019-02-17T11:55:49.390Z,57.00
2019-02-17T11:58:17.921Z,56.30
2019-02-17T12:00:46.707Z,55.80
2019-02-17T12:03:15.481Z,56.80
2019-02-17T12:05:44.344Z,56.80
2019-02-17T12:08:12.854Z,55.50
2019-02-17T12:10:43.179Z,56.40
2019-02-17T12:13:11.724Z,55.10
2019-02-17T12:15:42.808Z,56.00
2019-02-17T12:18:11.284Z,55.10
2019-02-17T12:20:41.790Z,55.10
2019-02-17T12:23:15.374Z,54.30
2019-02-17T12:25:45.492Z,54.30
2019-02-17T12:28:27.739Z,52.20
2019-02-17T12:30:56.526Z,52.10
2019-02-17T12:33:25.374Z,52.10
2019-02-17T12:35:54.960Z,50.90
2019-02-17T12:38:23.693Z,49.20
2019-02-17T12:40:52.624Z,50.10
2019-02-17T12:43:24.349Z,48.80
2019-02-17T12:45:53.050Z,47.80
2019-02-17T12:48:21.720Z,47.30
2019-02-17T12:50:50.192Z,47.80
2019-02-17T12:53:18.656Z,47.00
2019-02-17T12:55:47.220Z,49.50
2019-02-17T12:58:16.027Z,47.60
2019-02-17T13:00:44.549Z,47.60
2019-02-17T13:03:13.286Z,48.60
2019-02-17T13:05:43.110Z,46.40
2019-02-17T13:08:11.988Z,46.20
2019-02-17T13:10:40.476Z,45.20
2019-02-17T13:13:09.262Z,46.50
2019-02-17T13:15:37.748Z,46.60
2019-02-17T13:18:06.654Z,45.60
2019-02-17T13:20:35.179Z,46.70
2019-02-17T13:23:03.817Z,46.30
2019-02-17T13:25:32.320Z,45.70
2019-02-17T13:28:00.904Z,44.80
2019-02-17T13:30:29.842Z,46.20
2019-02-17T13:32:58.632Z,44.20
2019-02-17T13:35:28.298Z,44.50
2019-02-17T13:37:57.017Z,43.30
2019-02-17T13:40:25.926Z,43.80
2019-02-17T13:42:54.520Z,43.10
2019-02-17T13:45:25.514Z,44.40
2019-02-17T13:47:54.100Z,44.00
2019-02-17T13:50:22.717Z,45.20
2019-02-17T13:52:54.336Z,45.00
2019-02-17T13:55:24.773Z,47.30
2019-02-17T13:57:53.555Z,44.10
2019-02-17T14:00:24.134Z,43.80
2019-02-17T14:02:52.862Z,45.30
2019-02-17T14:05:21.738Z,45.60
2019-02-17T14:07:50.248Z,44.60
2019-02-17T14:10:20.626Z,45.20
2019-02-17T14:12:49.333Z,45.70
2019-02-17T14:15:22.431Z,45.90
2019-02-17T14:17:50.960Z,45.60
2019-02-17T14:20:19.524Z,45.70
2019-02-17T14:22:48.036Z,46.90
2019-02-17T14:25:21.625Z,46.80
2019-02-17T14:27:50.122Z,46.90
2019-02-17T14:30:19.517Z,47.50
2019-02-17T14:32:49.729Z,47.60
2019-02-17T14:35:18.232Z,49.20
2019-02-17T14:37:46.717Z,49.50
2019-02-17T14:40:15.541Z,49.40
2019-02-17T14:42:44.335Z,49.80
2019-02-17T14:45:15.083Z,50.20
2019-02-17T14:47:45.588Z,48.80
2019-02-17T14:50:14.128Z,49.50
2019-02-17T14:52:43.018Z,49.60
2019-02-17T14:55:12.660Z,50.30
2019-02-17T14:57:41.703Z,49.80
2019-02-17T15:00:15.290Z,50.80
2019-02-17T15:02:44.145Z,51.90
2019-02-17T15:05:12.803Z,51.20
2019-02-17T15:07:41.793Z,52.50
2019-02-17T15:10:11.894Z,52.40
2019-02-17T15:12:42.325Z,52.90
2019-02-17T15:15:15.504Z,53.70
2019-02-17T15:17:44.782Z,53.40
2019-02-17T15:20:15.371Z,53.50
2019-02-17T15:22:44.221Z,53.70
2019-02-17T15:25:13.047Z,54.30
2019-02-17T15:27:41.533Z,54.20
2019-02-17T15:30:14.592Z,55.10
2019-02-17T15:32:45.657Z,54.90
2019-02-17T15:35:15.211Z,54.30
2019-02-17T15:37:43.820Z,55.10
2019-02-17T15:40:13.526Z,55.60
2019-02-17T15:42:43.273Z,55.40
2019-02-17T15:45:13.234Z,55.70
2019-02-17T15:47:42.178Z,55.20
2019-02-17T15:50:14.546Z,55.40
2019-02-17T15:52:44.081Z,55.30
2019-02-17T15:55:15.121Z,55.60
2019-02-17T15:57:44.335Z,56.10
2019-02-17T16:00:16.173Z,56.30
2019-02-17T16:02:44.645Z,57.40
2019-02-17T16:05:13.265Z,57.40
2019-02-17T16:07:41.709Z,57.80
2019-02-17T16:10:12.119Z,58.20
2019-02-17T16:12:41.269Z,57.50
2019-02-17T16:15:24.064Z,58.00
2019-02-17T16:17:52.957Z,57.90
2019-02-17T16:20:21.459Z,57.10
2019-02-17T16:22:50.320Z,59.60
2019-02-17T16:25:19.205Z,58.20
2019-02-17T16:27:57.081Z,58.90
2019-02-17T16:30:27.097Z,59.10
2019-02-17T16:32:55.877Z,59.30
2019-02-17T16:35:24.600Z,59.70
2019-02-17T16:37:54.357Z,59.90
2019-02-17T16:40:25.033Z,60.40
2019-02-17T16:42:54.931Z,61.70
2019-02-17T16:45:23.447Z,61.60
2019-02-17T16:47:52.287Z,63.10
2019-02-17T16:50:25.429Z,63.00
2019-02-17T16:52:54.463Z,63.10
2019-02-17T16:55:22.903Z,64.70
2019-02-17T16:57:51.741Z,63.40
2019-02-17T17:00:25.969Z,63.60
2019-02-17T17:02:56.447Z,64.30
2019-02-17T17:05:26.013Z,64.20
2019-02-17T17:07:55.532Z,63.90
2019-02-17T17:10:24.173Z,63.70
2019-02-17T17:12:52.795Z,63.80
2019-02-17T17:15:21.327Z,63.10
2019-02-17T17:17:50.101Z,64.50
2019-02-17T17:20:21.095Z,63.90
2019-02-17T17:22:49.857Z,63.90
2019-02-17T17:25:18.469Z,64.10
2019-02-17T17:27:46.938Z,64.80
2019-02-17T17:30:16.998Z,65.40
2019-02-17T17:32:45.463Z,65.70
2019-02-17T17:35:16.128Z,64.90
2019-02-17T17:37:44.928Z,65.60
2019-02-17T17:40:17.493Z,64.90
2019-02-17T17:42:47.640Z,64.60
2019-02-17T17:45:23.714Z,63.90
2019-02-17T17:47:54.878Z,64.90
2019-02-17T17:50:23.340Z,64.20
2019-02-17T17:52:52.117Z,63.50
2019-02-17T17:55:20.878Z,63.90
2019-02-17T17:57:49.690Z,64.20
2019-02-17T18:00:20.246Z,65.50
2019-02-17T18:02:49.162Z,66.40
2019-02-17T18:05:17.944Z,65.90
2019-02-17T18:07:46.400Z,67.60
2019-02-17T18:10:18.626Z,67.90
2019-02-17T18:12:47.060Z,68.00
2019-02-17T18:15:17.619Z,69.40
2019-02-17T18:17:54.007Z,70.60
2019-02-17T18:20:16.753Z,70.40
2019-02-17T18:22:45.599Z,70.90
2019-02-17T18:25:15.562Z,73.10
2019-02-17T18:27:45.815Z,76.90
2019-02-17T18:30:19.372Z,80.00
2019-02-17T18:32:48.025Z,80.50
2019-02-17T18:35:20.361Z,83.10
2019-02-17T18:37:47.022Z,84.20
2019-02-17T18:40:17.992Z,84.90
2019-02-17T18:42:46.709Z,86.10
2019-02-17T18:45:16.796Z,87.10
2019-02-17T18:47:45.340Z,90.00
2019-02-17T18:50:15.900Z,92.30
2019-02-17T18:52:44.381Z,94.70
2019-02-17T18:55:15.338Z,96.50
2019-02-17T18:57:50.016Z,97.20
2019-02-17T19:00:19.352Z,98.10
2019-02-17T19:02:47.838Z,99.90
2019-02-17T19:05:16.375Z,99.90
2019-02-17T19:07:44.861Z,99.90
2019-02-17T19:10:14.841Z,99.90
2019-02-17T19:12:43.405Z,99.90
2019-02-17T19:15:22.302Z,99.90
2019-02-17T19:17:50.838Z,99.90
2019-02-17T19:20:22.197Z,99.90
2019-02-17T19:22:50.669Z,99.90
2019-02-17T19:25:19.507Z,99.90
2019-02-17T19:27:48.206Z,99.90
2019-02-17T19:30:19.326Z,99.90
2019-02-17T19:32:49.633Z,99.90
2019-02-17T19:35:18.354Z,99.90
2019-02-17T19:37:46.836Z,99.90
2019-02-17T19:40:16.464Z,99.90
2019-02-17T19:42:44.915Z,99.90
2019-02-17T19:45:17.675Z,99.90
2019-02-17T19:47:46.485Z,99.90
2019-02-17T19:50:17.105Z,99.90
2019-02-17T19:52:46.476Z,99.90
2019-02-17T19:55:16.026Z,99.90
2019-02-17T19:57:48.907Z,99.90
2019-02-17T20:00:19.099Z,99.90
2019-02-17T20:02:49.263Z,99.90
2019-02-17T20:05:22.349Z,99.90
2019-02-17T20:07:52.952Z,99.90
2019-02-17T20:10:21.490Z,99.90
2019-02-17T20:12:50.421Z,99.90
2019-02-17T20:15:25.158Z,99.90
2019-02-17T20:17:53.935Z,99.90
2019-02-17T20:20:23.965Z,99.90
2019-02-17T20:22:52.847Z,99.90
2019-02-17T20:25:21.432Z,99.90
2019-02-17T20:27:51.845Z,99.90
2019-02-17T20:30:21.023Z,99.90
2019-02-17T20:32:49.565Z,99.90
2019-02-17T20:35:18.033Z,99.90
2019-02-17T20:37:46.494Z,99.90
2019-02-17T20:40:16.698Z,99.90
2019-02-17T20:42:51.233Z,99.90
2019-02-17T20:45:22.510Z,99.90
2019-02-17T20:47:52.033Z,99.90
2019-02-17T20:50:27.629Z,99.90
2019-02-17T20:52:56.209Z,99.90
2019-02-17T20:55:24.659Z,99.90
2019-02-17T20:57:53.129Z,99.90
2019-02-17T21:00:25.101Z,99.90
2019-02-17T21:02:53.637Z,99.90
2019-02-17T21:05:22.137Z,99.90
2019-02-17T21:07:52.180Z,99.90
2019-02-17T21:10:22.857Z,99.90
2019-02-17T21:12:51.733Z,99.90
2019-02-17T21:15:21.287Z,99.90
2019-02-17T21:17:50.081Z,99.90
2019-02-17T21:20:19.523Z,99.90
2019-02-17T21:22:53.076Z,99.90
2019-02-17T21:25:22.988Z,99.90
2019-02-17T21:27:51.503Z,99.90
2019-02-17T21:30:20.431Z,99.90
2019-02-17T21:32:49.132Z,99.90
2019-02-17T21:35:18.043Z,99.90
2019-02-17T21:37:46.845Z,99.90
2019-02-17T21:40:15.441Z,99.90
2019-02-17T21:42:46.846Z,99.90
2019-02-17T21:45:16.527Z,99.90
2019-02-17T21:47:45.283Z,99.90
2019-02-17T21:50:16.414Z,99.90
2019-02-17T21:52:45.215Z,99.90
2019-02-17T21:55:14.861Z,99.90
2019-02-17T21:57:43.354Z,99.90
2019-02-17T22:00:19.489Z,99.90
2019-02-17T22:02:48.377Z,99.90
2019-02-17T22:05:16.928Z,99.90
2019-02-17T22:07:46.581Z,99.90
2019-02-17T22:10:19.409Z,99.90
2019-02-17T22:12:47.866Z,99.90
2019-02-17T22:15:20.447Z,99.90
2019-02-17T22:17:49.203Z,99.90
2019-02-17T22:20:18.077Z,99.90
2019-02-17T22:22:46.633Z,99.90
2019-02-17T22:25:15.522Z,99.90
2019-02-17T22:27:44.030Z,99.90
2019-02-17T22:30:14.631Z,99.90
2019-02-17T22:32:43.621Z,99.90
2019-02-17T22:35:12.126Z,99.90
2019-02-17T22:37:43.164Z,99.90
2019-02-17T22:40:15.145Z,99.90
2019-02-17T22:42:43.654Z,99.90
2019-02-17T22:45:12.928Z,99.90
2019-02-17T22:47:43.570Z,99.90
2019-02-17T22:50:14.082Z,99.90
2019-02-17T22:52:43.033Z,99.90
2019-02-17T22:55:12.927Z,99.90
2019-02-17T22:57:41.700Z,99.90
2019-02-17T23:00:31.416Z,99.90
2019-02-17T23:03:03.039Z,99.90
2019-02-17T23:05:32.316Z,99.90
2019-02-17T23:08:03.000Z,99.90
2019-02-17T23:10:31.761Z,99.90
2019-02-17T23:13:00.999Z,99.90
2019-02-17T23:15:29.852Z,99.90
2019-02-17T23:18:03.315Z,99.90
2019-02-17T23:20:32.036Z,99.90
2019-02-17T23:23:00.606Z,99.90
2019-02-17T23:25:29.055Z,99.90
2019-02-17T23:27:57.752Z,99.90
2019-02-17T23:30:26.498Z,99.90
2019-02-17T23:32:55.252Z,99.90
2019-02-17T23:35:23.992Z,99.90
2019-02-17T23:37:52.750Z,99.90
2019-02-17T23:40:21.517Z,99.90
2019-02-17T23:42:49.993Z,99.90
2019-02-17T23:45:18.509Z,99.90
2019-02-17T23:47:46.953Z,99.90
2019-02-17T23:50:15.858Z,99.90
2019-02-17T23:52:44.588Z,99.90
2019-02-17T23:55:13.444Z,99.90
2019-02-17T23:57:44.790Z,99.90
